Time;durP1;ratioP1;P1;durP2;ratioP2;P2;SDS_P1;SDS_P2;PMS_P1;PMS_P2;Temp;Humidity;BMP_temperature;BMP_pressure;BME280_temperature;BME280_humidity;BME280_pressure;Samples;Min_cycle;Max_cycle;Signal;HPM_P1;HPM_P2
2022/01/01 00:02:03;;;;;;;4.20;3.58;;;;;;;9.73;95.50;100059.41;5073619;28;20147;-56
2022/01/01 00:04:29;;;;;;;6.18;4.47;;;;;;;9.67;95.34;100078.78;5073905;28;20071;-55
2022/01/01 00:06:54;;;;;;;5.00;4.10;;;;;;;9.62;95.63;100073.66;5073679;28;20513;-55
2022/01/01 00:09:19;;;;;;;4.65;3.78;;;;;;;9.63;95.15;100064.88;5086610;28;20031;-55
2022/01/01 00:11:45;;;;;;;5.75;4.25;;;;;;;9.63;95.34;100077.13;5093544;28;20036;-55
2022/01/01 00:14:10;;;;;;;4.95;4.07;;;;;;;9.69;95.01;100063.00;5093662;28;20482;-51
2022/01/01 00:16:36;;;;;;;4.78;3.58;;;;;;;9.65;94.71;100072.69;5092015;28;20477;-55
2022/01/01 00:19:02;;;;;;;5.32;4.07;;;;;;;9.65;95.30;100072.69;5090657;28;20464;-54
2022/01/01 00:21:28;;;;;;;4.82;4.05;;;;;;;9.58;95.67;100073.75;5077061;28;20032;-54
2022/01/01 00:23:54;;;;;;;5.10;3.72;;;;;;;9.61;95.60;100071.94;5093319;28;20040;-55
2022/01/01 00:26:19;;;;;;;5.18;3.72;;;;;;;9.58;95.72;100074.63;5093120;28;20032;-55
2022/01/01 00:28:45;;;;;;;3.92;2.80;;;;;;;9.57;95.89;100065.00;5080115;28;20403;-52
2022/01/01 00:31:10;;;;;;;4.03;3.20;;;;;;;9.56;95.99;100058.03;5094428;28;20032;-55
2022/01/01 00:33:36;;;;;;;4.20;3.05;;;;;;;9.48;96.76;100049.47;5097348;28;20040;-55
2022/01/01 00:36:02;;;;;;;2.47;2.13;;;;;;;9.44;97.15;100060.06;5097536;28;20479;-55
2022/01/01 00:38:27;;;;;;;2.45;1.80;;;;;;;9.42;97.38;100068.00;5093482;28;20036;-54
2022/01/01 00:40:53;;;;;;;2.20;1.70;;;;;;;9.40;97.85;100076.78;5077155;28;20606;-57
2022/01/01 00:43:18;;;;;;;2.97;1.60;;;;;;;9.32;97.92;100083.03;5077164;28;20039;-55
2022/01/01 00:45:44;;;;;;;2.00;1.35;;;;;;;9.35;97.27;100082.13;5077101;28;20041;-55
2022/01/01 00:48:09;;;;;;;1.83;1.00;;;;;;;9.37;96.37;100093.41;5078349;28;20107;-53
2022/01/01 00:50:34;;;;;;;1.30;0.90;;;;;;;9.30;96.59;100086.59;5094080;28;20034;-53
2022/01/01 00:53:00;;;;;;;1.38;0.90;;;;;;;9.30;96.12;100091.84;5097619;28;20071;-54
2022/01/01 00:55:26;;;;;;;1.63;0.80;;;;;;;9.16;96.27;100107.84;5097060;28;20032;-54
2022/01/01 00:57:51;;;;;;;1.35;0.80;;;;;;;9.20;96.18;100103.41;5086158;28;20123;-55
2022/01/01 01:00:17;;;;;;;1.40;0.90;;;;;;;9.36;95.74;100107.44;5076676;28;20029;-50
2022/01/01 01:02:42;;;;;;;1.73;0.77;;;;;;;9.39;95.55;100089.03;5076942;28;20059;-53
2022/01/01 01:05:08;;;;;;;1.42;0.85;;;;;;;9.46;95.10;100093.25;5077792;28;20498;-56
2022/01/01 01:07:33;;;;;;;1.70;0.98;;;;;;;9.38;95.86;100095.16;5095984;28;20068;-55
2022/01/01 01:09:59;;;;;;;1.60;0.90;;;;;;;9.40;95.81;100108.25;5097133;28;20032;-53
2022/01/01 01:12:32;;;;;;;1.45;0.82;;;;;;;9.46;95.75;100108.97;5096897;28;20449;-53
2022/01/01 01:14:57;;;;;;;;;;;;;;;9.18;97.15;100113.94;5097211;28;20028;-50
2022/01/01 01:17:22;;;;;;;1.27;0.73;;;;;;;9.32;96.81;100116.25;5080960;28;19924;-54
2022/01/01 01:19:48;;;;;;;1.50;0.77;;;;;;;9.35;96.65;100121.44;5076520;28;20729;-52
2022/01/01 01:22:13;;;;;;;1.38;0.90;;;;;;;9.42;96.68;100125.69;5081854;28;20459;-54
2022/01/01 01:24:39;;;;;;;1.70;1.20;;;;;;;9.44;96.60;100126.50;5095003;28;20046;-52
2022/01/01 01:27:06;;;;;;;2.63;1.50;;;;;;;9.26;98.03;100126.88;5090080;28;20483;-54
2022/01/01 01:29:33;;;;;;;1.83;1.27;;;;;;;9.40;96.85;100126.59;5086065;28;20020;-51
2022/01/01 01:31:58;;;;;;;2.00;1.10;;;;;;;9.43;96.77;100127.41;5079797;28;20037;-52
2022/01/01 01:34:24;;;;;;;1.63;1.20;;;;;;;9.37;97.51;100133.66;5076322;28;20060;-54
2022/01/01 01:36:49;;;;;;;2.30;1.50;;;;;;;9.29;97.96;100137.28;5076217;28;20080;-55
2022/01/01 01:39:14;;;;;;;1.80;1.30;;;;;;;9.39;97.40;100138.84;5076447;28;20032;-53
2022/01/01 01:41:42;;;;;;;1.65;1.23;;;;;;;9.43;97.40;100134.41;5077109;28;20392;-53
2022/01/01 01:44:24;;;;;;;1.27;1.00;;;;;;;9.45;97.14;100143.09;5076188;28;20567;-51
2022/01/01 01:46:49;;;;;;;1.85;0.90;;;;;;;9.37;97.48;100136.28;5076041;28;20033;-52
2022/01/01 01:49:15;;;;;;;2.65;1.10;;;;;;;9.42;97.32;100149.28;5075935;28;20039;-54
2022/01/01 01:51:41;;;;;;;1.27;0.90;;;;;;;9.42;97.54;100153.66;5090497;28;20036;-54
2022/01/01 01:54:09;;;;;;;1.73;1.00;;;;;;;9.34;98.42;100154.69;5095485;28;20138;-52
2022/01/01 01:56:36;;;;;;;2.08;1.08;;;;;;;9.38;98.12;100145.00;5095880;28;20106;-52
2022/01/01 01:59:02;;;;;;;1.45;0.90;;;;;;;9.32;98.24;100159.06;5096322;28;20494;-51
2022/01/01 02:01:27;;;;;;;1.55;1.05;;;;;;;9.35;98.65;100173.88;5096020;28;20062;-54
2022/01/01 02:03:56;;;;;;;1.20;0.80;;;;;;;9.39;98.43;100172.94;5086358;28;20047;-52
2022/01/01 02:06:23;;;;;;;1.60;0.82;;;;;;;9.28;99.27;100185.38;5075682;28;20040;-53
2022/01/01 02:08:51;;;;;;;1.42;0.90;;;;;;;9.30;99.12;100171.38;5075494;28;20037;-54
2022/01/01 02:11:18;;;;;;;1.40;0.88;;;;;;;9.35;98.92;100168.66;5083202;28;20028;-51
2022/01/01 02:14:02;;;;;;;1.98;1.00;;;;;;;9.32;98.91;100173.94;5095894;28;20433;-53
2022/01/01 02:16:37;;;;;;;1.63;0.95;;;;;;;9.33;99.34;100173.03;5095655;28;20056;-53
2022/01/01 02:19:02;;;;;;;1.95;1.00;;;;;;;9.32;99.59;100172.19;5078049;28;20040;-54
2022/01/01 02:21:28;;;;;;;1.35;0.95;;;;;;;9.28;100.00;100167.91;5075248;28;20037;-52
2022/01/01 02:23:58;;;;;;;1.67;0.90;;;;;;;9.22;100.00;100167.16;5075390;28;20033;-55
2022/01/01 02:26:32;;;;;;;1.50;1.08;;;;;;;9.16;100.00;100173.38;5091351;28;20434;-53
2022/01/01 02:28:58;;;;;;;1.40;1.05;;;;;;;9.05;100.00;100170.09;5075423;28;20115;-54
2022/01/01 02:31:24;;;;;;;2.28;0.95;;;;;;;9.15;100.00;100165.56;5075383;28;20040;-54
2022/01/01 02:33:50;;;;;;;1.58;0.80;;;;;;;9.19;99.96;100185.56;5074943;28;20408;-54
2022/01/01 02:36:31;;;;;;;1.77;0.85;;;;;;;9.13;99.68;100184.78;5086652;28;20051;-55
2022/01/01 02:38:56;;;;;;;1.05;0.85;;;;;;;9.20;99.78;100184.66;5095398;28;20023;-54
2022/01/01 02:41:22;;;;;;;2.80;0.80;;;;;;;9.15;99.89;100189.16;5082168;28;20391;-52
2022/01/01 02:43:47;;;;;;;1.00;0.63;;;;;;;9.18;99.82;100181.22;5074899;28;20079;-52
2022/01/01 02:46:12;;;;;;;2.40;0.77;;;;;;;9.10;100.00;100191.84;5075041;28;20399;-55
2022/01/01 02:48:38;;;;;;;1.73;0.93;;;;;;;9.17;100.00;100192.59;5074985;28;20053;-55
2022/01/01 02:51:05;;;;;;;1.35;0.73;;;;;;;9.24;100.00;100202.06;5073607;28;20036;-56
2022/01/01 02:53:30;;;;;;;1.48;0.80;;;;;;;9.07;100.00;100231.22;5076193;28;20033;-53
2022/01/01 02:55:55;;;;;;;1.40;0.90;;;;;;;9.03;100.00;100205.97;5095002;28;20105;-53
2022/01/01 02:58:21;;;;;;;1.98;1.05;;;;;;;9.10;100.00;100204.97;5095082;28;20130;-55
2022/01/01 03:00:46;;;;;;;2.17;1.10;;;;;;;9.14;100.00;100211.88;5087238;28;20032;-55
2022/01/01 03:03:12;;;;;;;2.70;1.10;;;;;;;9.06;100.00;100219.88;5074349;28;20529;-54
2022/01/01 03:05:37;;;;;;;1.63;1.02;;;;;;;9.06;100.00;100219.88;5074764;28;20036;-53
2022/01/01 03:08:04;;;;;;;1.52;1.00;;;;;;;9.04;100.00;100226.88;5088862;28;20036;-55
2022/01/01 03:10:29;;;;;;;1.60;0.90;;;;;;;9.01;100.00;100229.56;5094813;28;20166;-53
2022/01/01 03:12:55;;;;;;;1.90;1.17;;;;;;;9.07;100.00;100237.31;5094743;28;20070;-53
2022/01/01 03:15:21;;;;;;;2.78;1.00;;;;;;;8.99;100.00;100233.97;5094497;28;20395;-53
2022/01/01 03:17:46;;;;;;;2.25;1.20;;;;;;;9.02;100.00;100239.16;5094769;28;20111;-54
2022/01/01 03:20:12;;;;;;;1.80;1.10;;;;;;;9.14;100.00;100243.34;5090477;28;20047;-51
2022/01/01 03:22:37;;;;;;;1.77;1.25;;;;;;;9.22;100.00;100246.69;5075301;28;20043;-51
2022/01/01 03:25:03;;;;;;;2.30;1.08;;;;;;;9.28;100.00;100246.56;5094806;28;20479;-53
2022/01/01 03:27:28;;;;;;;1.67;1.27;;;;;;;9.26;100.00;100261.47;5084462;28;20036;-53
2022/01/01 03:29:53;;;;;;;1.77;1.10;;;;;;;9.24;100.00;100259.75;5086591;28;20093;-54
2022/01/01 03:32:19;;;;;;;2.20;1.20;;;;;;;9.14;100.00;100251.19;5094328;28;20488;-52
2022/01/01 03:34:44;;;;;;;1.70;1.15;;;;;;;9.12;100.00;100261.69;5089886;28;20040;-54
2022/01/01 03:37:10;;;;;;;2.47;1.25;;;;;;;9.11;100.00;100262.59;5074066;28;20461;-54
2022/01/01 03:39:35;;;;;;;2.03;1.23;;;;;;;9.18;100.00;100268.59;5074402;28;20427;-55
2022/01/01 03:42:01;;;;;;;2.25;1.33;;;;;;;9.20;100.00;100265.94;5073980;28;20107;-53
2022/01/01 03:44:26;;;;;;;2.50;1.38;;;;;;;9.22;100.00;100259.78;5074118;28;20060;-54
2022/01/01 03:46:57;;;;;;;2.28;1.48;;;;;;;9.14;100.00;100264.31;5083596;28;20494;-54
2022/01/01 03:49:23;;;;;;;2.38;1.45;;;;;;;9.12;100.00;100277.41;5094173;28;20028;-56
2022/01/01 03:51:49;;;;;;;1.88;1.30;;;;;;;9.16;100.00;100272.13;5094008;28;20093;-55
2022/01/01 03:54:16;;;;;;;2.33;1.40;;;;;;;9.19;100.00;100272.09;5093994;28;20091;-54
2022/01/01 03:56:42;;;;;;;2.13;1.38;;;;;;;9.10;100.00;100281.84;5090863;28;20039;-54
2022/01/01 03:59:07;;;;;;;1.38;1.08;;;;;;;9.21;100.00;100286.88;5073581;28;20033;-53
2022/01/01 04:01:33;;;;;;;2.10;1.30;;;;;;;9.22;100.00;100285.16;5073443;28;20047;-54
2022/01/01 04:03:58;;;;;;;3.03;1.48;;;;;;;9.18;100.00;100286.09;5079982;28;20040;-54
2022/01/01 04:06:24;;;;;;;2.05;1.20;;;;;;;9.18;100.00;100304.44;5092973;28;20040;-54
2022/01/01 04:08:49;;;;;;;2.03;1.50;;;;;;;9.19;100.00;100298.28;5084429;28;20103;-54
2022/01/01 04:11:14;;;;;;;2.17;1.55;;;;;;;9.20;100.00;100308.75;5073467;28;20040;-55
2022/01/01 04:13:40;;;;;;;2.72;1.50;;;;;;;9.20;100.00;100306.13;5073524;28;20029;-54
2022/01/01 04:16:06;;;;;;;2.58;1.45;;;;;;;9.12;100.00;100308.88;5073183;28;20029;-50
2022/01/01 04:18:38;;;;;;;2.92;1.50;;;;;;;9.18;100.00;100312.31;5073775;28;20111;-55
2022/01/01 04:21:13;;;;;;;2.10;1.53;;;;;;;9.21;100.00;100317.47;5073589;28;20098;-55
2022/01/01 04:23:40;;;;;;;2.50;1.60;;;;;;;9.19;100.00;100319.28;5082116;28;20266;-54
2022/01/01 04:26:09;;;;;;;2.65;1.33;;;;;;;9.22;100.00;100324.47;5073452;28;20090;-55
2022/01/01 04:28:35;;;;;;;1.65;1.15;;;;;;;9.15;100.00;100322.84;5074367;28;20037;-53
2022/01/01 04:31:01;;;;;;;1.70;1.00;;;;;;;9.19;100.00;100327.13;5073361;28;20068;-54
2022/01/01 04:33:26;;;;;;;1.83;0.85;;;;;;;9.04;100.00;100336.09;5078294;28;20182;-53
2022/01/01 04:35:51;;;;;;;1.92;0.90;;;;;;;9.08;100.00;100336.03;5093466;28;20383;-55
2022/01/01 04:40:58;;;;;;;1.45;0.60;;;;;;;9.12;100.00;100327.22;5093100;28;20086;-51
2022/01/01 04:43:23;;;;;;;1.63;0.70;;;;;;;8.99;99.87;100343.19;5093796;28;20032;-55
2022/01/01 04:45:48;;;;;;;0.98;0.70;;;;;;;9.10;99.62;100333.41;5091803;28;20098;-51
2022/01/01 04:48:14;;;;;;;1.27;0.43;;;;;;;9.01;98.92;100331.75;5073214;28;20166;-54
2022/01/01 04:50:39;;;;;;;1.60;0.90;;;;;;;9.00;99.21;100335.28;5073236;28;20032;-54
2022/01/01 04:53:04;;;;;;;2.17;1.25;;;;;;;9.03;99.12;100335.25;5073173;28;20078;-55
2022/01/01 04:55:30;;;;;;;2.50;1.25;;;;;;;9.03;98.85;100339.63;5072971;28;20054;-53
2022/01/01 04:57:55;;;;;;;1.40;0.90;;;;;;;9.06;98.22;100345.69;5073990;28;20036;-55
2022/01/01 05:00:20;;;;;;;2.00;1.00;;;;;;;9.12;97.53;100339.47;5093294;28;20382;-55
2022/01/01 05:02:46;;;;;;;1.02;0.70;;;;;;;9.13;97.01;100357.78;5093313;28;20028;-54
2022/01/01 05:05:11;;;;;;;1.35;0.50;;;;;;;9.03;97.22;100350.09;5093173;28;20090;-53
2022/01/01 05:07:37;;;;;;;2.83;0.70;;;;;;;8.98;96.99;100347.56;5093185;28;20043;-52
2022/01/01 05:10:02;;;;;;;1.20;0.68;;;;;;;9.02;96.14;100349.25;5093235;28;20051;-53
2022/01/01 05:12:28;;;;;;;1.05;0.50;;;;;;;9.07;96.24;100347.41;5080287;28;20037;-52
2022/01/01 05:14:53;;;;;;;0.80;0.60;;;;;;;9.08;96.10;100345.66;5073097;28;20181;-55
2022/01/01 05:17:19;;;;;;;1.00;0.60;;;;;;;9.13;95.61;100352.53;5074617;28;20028;-54
2022/01/01 05:19:44;;;;;;;1.48;0.57;;;;;;;9.20;95.15;100353.31;5076631;28;20024;-53
2022/01/01 05:22:10;;;;;;;1.98;0.88;;;;;;;9.24;95.13;100364.63;5083473;28;20119;-53
2022/01/01 05:24:35;;;;;;;3.35;1.63;;;;;;;9.26;94.66;100354.97;5096408;28;20024;-53
2022/01/01 05:27:01;;;;;;;3.80;1.90;;;;;;;9.17;95.43;100355.13;5088260;28;20044;-54
2022/01/01 05:29:27;;;;;;;3.30;1.60;;;;;;;9.07;96.18;100350.03;5088273;28;20036;-53
2022/01/01 05:31:52;;;;;;;4.15;2.03;;;;;;;9.13;95.98;100362.16;5096515;28;20036;-55
2022/01/01 05:34:18;;;;;;;2.35;1.52;;;;;;;9.09;96.34;100350.84;5096106;28;20055;-55
2022/01/01 05:36:43;;;;;;;1.60;1.00;;;;;;;9.15;96.09;100356.91;5091967;28;20040;-55
2022/01/01 05:39:09;;;;;;;4.68;2.33;;;;;;;9.13;96.15;100352.53;5096054;28;20063;-55
2022/01/01 05:41:35;;;;;;;6.55;3.38;;;;;;;9.14;96.15;100363.91;5096380;28;20046;-53
2022/01/01 05:44:00;;;;;;;9.82;5.53;;;;;;;9.20;96.16;100366.41;5096597;28;20067;-54
2022/01/01 05:46:26;;;;;;;9.50;5.85;;;;;;;9.11;96.69;100369.19;5089758;28;20082;-53
2022/01/01 05:48:51;;;;;;;13.77;8.18;;;;;;;9.07;97.08;100372.75;5079868;28;20024;-54
2022/01/01 05:51:16;;;;;;;9.15;5.68;;;;;;;8.97;97.80;100379.88;5096191;28;20043;-52
2022/01/01 05:53:42;;;;;;;8.23;5.10;;;;;;;8.88;98.17;100380.03;5096210;28;20519;-54
2022/01/01 05:56:07;;;;;;;2.75;1.80;;;;;;;8.93;98.19;100395.66;5087507;28;20035;-52
2022/01/01 05:58:33;;;;;;;2.45;1.55;;;;;;;8.87;98.62;100381.78;5081083;28;20054;-54
2022/01/01 06:00:58;;;;;;;2.47;1.42;;;;;;;8.75;99.65;100381.97;5096101;28;20528;-54
2022/01/01 06:03:24;;;;;;;2.00;1.55;;;;;;;8.73;99.69;100382.84;5096008;28;20039;-53
2022/01/01 06:05:51;;;;;;;1.00;0.80;;;;;;;8.60;100.00;100384.78;5096026;28;20395;-51
2022/01/01 06:08:17;;;;;;;1.30;0.70;;;;;;;8.60;100.00;100388.25;5095879;28;20032;-51
2022/01/01 06:10:43;;;;;;;0.68;0.60;;;;;;;8.66;100.00;100391.69;5079437;28;20040;-55
2022/01/01 06:13:08;;;;;;;1.10;0.60;;;;;;;8.65;100.00;100406.53;5075746;28;20380;-53
2022/01/01 06:15:34;;;;;;;0.88;0.55;;;;;;;8.67;100.00;100414.41;5075542;28;20036;-55
2022/01/01 06:17:59;;;;;;;0.73;0.52;;;;;;;8.62;100.00;100415.31;5077476;28;20131;-53
2022/01/01 06:20:25;;;;;;;1.00;0.55;;;;;;;8.60;100.00;100413.59;5095665;28;20497;-53
2022/01/01 06:22:50;;;;;;;0.93;0.50;;;;;;;8.56;100.00;100422.38;5095426;28;20077;-54
2022/01/01 06:25:16;;;;;;;0.82;0.50;;;;;;;8.55;100.00;100425.88;5075198;28;20036;-51
2022/01/01 06:27:41;;;;;;;1.13;0.50;;;;;;;8.56;100.00;100438.94;5075199;28;20029;-52
2022/01/01 06:30:07;;;;;;;0.57;0.40;;;;;;;8.56;100.00;100431.09;5073581;28;20024;-54
2022/01/01 06:32:33;;;;;;;0.47;0.30;;;;;;;8.57;100.00;100439.81;5090897;28;20056;-53
2022/01/01 06:34:59;;;;;;;0.60;0.45;;;;;;;8.36;100.00;100447.00;5094171;28;20069;-53
2022/01/01 06:37:24;;;;;;;0.75;0.40;;;;;;;8.39;100.00;100430.44;5086540;28;20115;-53
2022/01/01 06:39:50;;;;;;;0.40;0.35;;;;;;;8.44;100.00;100439.09;5079416;28;20119;-54
2022/01/01 06:42:15;;;;;;;0.50;0.38;;;;;;;8.36;100.00;100435.69;5095126;28;20101;-55
2022/01/01 06:44:42;;;;;;;0.98;0.40;;;;;;;8.35;100.00;100444.44;5095345;28;20077;-55
2022/01/01 06:47:10;;;;;;;1.00;0.30;;;;;;;8.42;100.00;100451.38;5095001;28;20028;-53
2022/01/01 06:49:37;;;;;;;0.50;0.38;;;;;;;8.43;100.00;100453.09;5095089;28;20030;-55
2022/01/01 06:52:03;;;;;;;0.50;0.30;;;;;;;8.54;99.99;100439.88;5088405;28;20036;-56
2022/01/01 06:54:29;;;;;;;0.32;0.20;;;;;;;8.48;99.93;100447.78;5074592;28;20044;-52
2022/01/01 06:56:55;;;;;;;0.75;0.30;;;;;;;8.55;99.41;100439.00;5074570;28;20372;-56
2022/01/01 06:59:20;;;;;;;0.50;0.30;;;;;;;8.53;99.37;100449.47;5074731;28;20035;-54
2022/01/01 07:01:45;;;;;;;0.45;0.30;;;;;;;8.55;98.73;100441.59;5092037;28;20042;-53
2022/01/01 07:04:11;;;;;;;0.60;0.38;;;;;;;8.49;98.21;100452.13;5083504;28;20029;-54
2022/01/01 07:06:37;;;;;;;1.65;0.43;;;;;;;8.54;97.22;100443.38;5092876;28;20059;-52
2022/01/01 07:09:03;;;;;;;4.22;1.30;;;;;;;8.50;97.08;100459.13;5094524;28;20078;-55
2022/01/01 07:11:29;;;;;;;2.70;1.10;;;;;;;8.47;97.33;100460.03;5094952;28;20117;-54
2022/01/01 07:13:54;;;;;;;2.33;1.10;;;;;;;8.50;96.83;100473.09;5094509;28;20040;-55
2022/01/01 07:16:22;;;;;;;1.70;0.90;;;;;;;8.51;96.62;100473.97;5092389;28;20094;-51
2022/01/01 07:18:48;;;;;;;1.27;0.75;;;;;;;8.49;96.43;100484.44;5089474;28;20434;-54
2022/01/01 07:21:13;;;;;;;1.20;0.68;;;;;;;8.60;95.82;100484.31;5074149;28;20033;-52
2022/01/01 07:23:38;;;;;;;1.13;0.75;;;;;;;8.54;96.30;100482.66;5074020;28;20071;-54
2022/01/01 07:26:04;;;;;;;3.75;2.40;;;;;;;8.39;97.05;100480.19;5087596;28;20065;-55
2022/01/01 07:28:29;;;;;;;4.93;2.80;;;;;;;8.30;97.75;100498.59;5094372;28;20054;-51
2022/01/01 07:30:55;;;;;;;2.20;1.50;;;;;;;8.31;97.96;100490.72;5082894;28;20040;-52
2022/01/01 07:33:20;;;;;;;1.48;1.10;;;;;;;8.39;97.46;100496.78;5072425;28;20044;-55
2022/01/01 07:35:46;;;;;;;2.03;0.93;;;;;;;8.36;97.62;100499.38;5074428;28;20029;-55
2022/01/01 07:38:11;;;;;;;1.17;0.77;;;;;;;8.39;97.19;100495.91;5090014;28;20031;-52
2022/01/01 07:40:38;;;;;;;1.70;0.93;;;;;;;8.37;96.68;100510.75;5093995;28;20032;-54
2022/01/01 07:43:14;;;;;;;1.50;1.00;;;;;;;8.29;96.60;100523.03;5094272;28;20027;-56
2022/01/01 07:45:40;;;;;;;1.70;0.95;;;;;;;8.48;96.14;100524.59;5073957;28;20041;-55
2022/01/01 07:48:06;;;;;;;1.90;1.10;;;;;;;8.57;95.91;100534.09;5073658;28;20059;-56
2022/01/01 07:50:32;;;;;;;1.60;1.10;;;;;;;8.57;95.08;100537.59;5073609;28;20028;-55
2022/01/01 07:52:57;;;;;;;2.42;1.20;;;;;;;8.58;94.55;100557.69;5073698;28;20529;-53
2022/01/01 07:55:23;;;;;;;2.13;1.58;;;;;;;8.64;94.35;100560.22;5073712;28;20041;-55
2022/01/01 07:57:48;;;;;;;3.22;2.13;;;;;;;8.58;93.95;100581.25;5087259;28;20027;-55
2022/01/01 08:00:14;;;;;;;4.55;2.55;;;;;;;8.68;93.77;100578.53;5093883;28;20036;-54
2022/01/01 08:02:44;;;;;;;2.92;1.92;;;;;;;8.64;92.92;100583.78;5089619;28;20037;-55
2022/01/01 08:05:11;;;;;;;3.17;2.33;;;;;;;8.75;93.04;100588.94;5073386;28;20112;-55
2022/01/01 08:07:37;;;;;;;3.40;2.22;;;;;;;8.80;92.74;100583.63;5079347;28;20043;-55
2022/01/01 08:10:03;;;;;;;3.10;2.10;;;;;;;8.72;92.77;100590.72;5093824;28;20033;-54
2022/01/01 08:12:29;;;;;;;2.42;1.48;;;;;;;8.76;92.64;100585.41;5093514;28;20036;-54
2022/01/01 08:14:56;;;;;;;1.90;1.10;;;;;;;8.80;92.48;100592.34;5093908;28;20490;-54
2022/01/01 08:17:23;;;;;;;1.65;1.27;;;;;;;8.82;92.37;100597.59;5093646;28;20043;-54
2022/01/01 08:19:48;;;;;;;1.92;1.40;;;;;;;8.84;92.23;100601.06;5084507;28;20426;-52
2022/01/01 08:22:14;;;;;;;1.88;1.30;;;;;;;8.84;91.74;100595.81;5090745;28;20035;-54
2022/01/01 08:24:40;;;;;;;2.00;1.50;;;;;;;8.85;91.16;100593.16;5082788;28;20028;-54
2022/01/01 08:27:06;;;;;;;2.78;1.63;;;;;;;8.75;92.03;100603.78;5073928;28;20496;-56
2022/01/01 08:29:32;;;;;;;2.97;1.60;;;;;;;8.74;92.06;100602.06;5086357;28;20075;-53
2022/01/01 08:31:57;;;;;;;2.40;1.50;;;;;;;8.67;92.22;100608.22;5077598;28;20038;-56
2022/01/01 08:34:23;;;;;;;2.15;1.50;;;;;;;8.69;91.93;100612.56;5086727;28;20048;-55
2022/01/01 08:36:49;;;;;;;1.90;1.27;;;;;;;8.75;92.10;100611.63;5082752;28;20032;-54
2022/01/01 08:39:15;;;;;;;3.58;1.85;;;;;;;8.73;92.21;100616.00;5073351;28;20037;-54
2022/01/01 08:41:43;;;;;;;4.50;1.98;;;;;;;8.77;91.88;100621.19;5073340;28;20029;-55
2022/01/01 08:44:08;;;;;;;2.88;1.67;;;;;;;8.79;91.90;100611.59;5073172;28;20064;-54
2022/01/01 08:46:34;;;;;;;3.17;1.80;;;;;;;8.75;91.45;100622.97;5072870;28;20071;-54
2022/01/01 08:49:00;;;;;;;3.65;1.95;;;;;;;8.79;91.66;100629.94;5072977;28;20028;-54
2022/01/01 08:51:26;;;;;;;4.00;1.98;;;;;;;8.75;91.80;100628.22;5073325;28;20063;-56
2022/01/01 08:53:52;;;;;;;3.17;1.95;;;;;;;8.76;91.86;100639.56;5094457;28;20036;-56
2022/01/01 08:56:17;;;;;;;3.42;1.80;;;;;;;8.79;91.61;100645.66;5096683;28;20463;-55
2022/01/01 08:58:45;;;;;;;2.88;1.58;;;;;;;8.80;91.63;100636.03;5096207;28;20043;-56
2022/01/01 09:01:10;;;;;;;2.35;1.55;;;;;;;8.82;91.27;100643.00;5096207;28;20031;-55
2022/01/01 09:03:36;;;;;;;2.72;2.03;;;;;;;8.76;91.42;100650.03;5082627;28;20040;-53
2022/01/01 09:06:02;;;;;;;2.90;2.03;;;;;;;8.77;91.41;100662.25;5091995;28;20063;-54
2022/01/01 09:08:29;;;;;;;3.42;1.77;;;;;;;8.71;91.63;100662.34;5077651;28;20024;-53
2022/01/01 09:10:54;;;;;;;2.83;2.03;;;;;;;8.69;91.81;100669.31;5095247;28;20040;-51
2022/01/01 09:13:20;;;;;;;4.38;1.70;;;;;;;8.69;91.67;100670.19;5093200;28;20112;-55
2022/01/01 09:15:45;;;;;;;3.97;1.90;;;;;;;8.66;91.97;100682.44;5092051;28;20064;-52
2022/01/01 09:18:11;;;;;;;3.95;1.88;;;;;;;8.70;92.00;100697.25;5096676;28;20458;-55
2022/01/01 09:20:36;;;;;;;2.95;2.00;;;;;;;8.74;91.71;100696.38;5092068;28;20029;-54
2022/01/01 09:23:01;;;;;;;3.50;2.10;;;;;;;8.80;91.61;100683.19;5085359;28;20383;-54
2022/01/01 09:25:27;;;;;;;4.18;2.50;;;;;;;8.74;91.44;100704.22;5090879;28;20123;-55
2022/01/01 09:27:52;;;;;;;4.78;2.63;;;;;;;8.75;91.37;100698.09;5082034;28;20028;-53
2022/01/01 09:30:18;;;;;;;10.80;4.78;;;;;;;8.73;91.57;100702.47;5096170;28;20036;-53
2022/01/01 09:32:43;;;;;;;12.18;5.68;;;;;;;8.79;91.39;100710.28;5088195;28;20121;-54
2022/01/01 09:35:09;;;;;;;9.40;4.78;;;;;;;8.79;91.13;100712.91;5086091;28;20032;-54
2022/01/01 09:37:34;;;;;;;6.78;3.55;;;;;;;8.78;91.11;100712.03;5089342;28;20082;-56
2022/01/01 09:40:01;;;;;;;5.22;3.00;;;;;;;8.80;91.19;100714.63;5084079;28;20040;-51
2022/01/01 09:42:26;;;;;;;4.88;2.53;;;;;;;8.79;91.06;100712.91;5096289;28;20028;-54
2022/01/01 09:44:52;;;;;;;6.65;2.60;;;;;;;8.74;91.19;100715.56;5086106;28;20047;-53
2022/01/01 09:47:18;;;;;;;6.43;2.90;;;;;;;8.78;91.41;100721.66;5088734;28;20063;-51
2022/01/01 09:49:44;;;;;;;5.10;2.90;;;;;;;8.88;90.69;100733.78;5084622;28;20033;-53
2022/01/01 09:52:12;;;;;;;4.25;3.08;;;;;;;8.87;90.67;100732.91;5081814;28;20040;-53
2022/01/01 09:54:38;;;;;;;7.00;3.13;;;;;;;8.85;90.96;100752.13;5082734;28;20025;-52
2022/01/01 09:57:04;;;;;;;7.15;3.70;;;;;;;8.88;90.81;100752.13;5075518;28;20063;-55
2022/01/01 09:59:30;;;;;;;9.27;5.25;;;;;;;8.96;90.30;100754.69;5075811;28;20029;-51
2022/01/01 10:01:55;;;;;;;10.13;4.70;;;;;;;8.94;90.22;100759.94;5075566;28;20051;-55
2022/01/01 10:04:22;;;;;;;7.72;4.25;;;;;;;9.06;89.83;100753.72;5083731;28;20032;-53
2022/01/01 10:07:04;;;;;;;7.57;4.10;;;;;;;9.06;87.96;100764.22;5086368;28;20430;-53
2022/01/01 10:09:32;;;;;;;6.85;3.88;;;;;;;9.18;88.70;100769.34;5076815;28;20039;-53
2022/01/01 10:11:58;;;;;;;8.75;4.68;;;;;;;9.25;87.99;100775.38;5087133;28;20032;-52
2022/01/01 10:14:34;;;;;;;11.30;6.10;;;;;;;9.30;86.38;100781.44;5079549;28;20036;-54
2022/01/01 10:16:59;;;;;;;14.13;7.72;;;;;;;9.41;86.83;100792.69;5081194;28;20036;-52
2022/01/01 10:19:30;;;;;;;19.80;9.60;;;;;;;9.38;86.37;100782.25;5079229;28;20032;-54
2022/01/01 10:21:56;;;;;;;12.73;6.88;;;;;;;9.45;85.80;100783.88;5092507;28;20051;-54
2022/01/01 10:24:40;;;;;;;11.30;6.45;;;;;;;9.41;85.33;100782.19;5088378;28;20067;-53
2022/01/01 10:30:38;;;;;;;6.80;3.95;;;;;;;9.18;83.49;100790.31;5051979;28;20045;-54
2022/01/01 10:33:07;;;;;;;7.47;4.38;;;;;;;9.10;83.54;100792.13;5052220;28;20049;-53
2022/01/01 10:35:35;;;;;;;9.00;4.32;;;;;;;9.19;84.17;100801.66;5079121;28;20040;-52
2022/01/01 10:38:13;;;;;;;6.57;3.97;;;;;;;9.12;83.21;100811.31;5095395;28;20036;-55
2022/01/01 10:40:39;;;;;;;7.70;4.20;;;;;;;9.18;84.07;100811.28;5089645;28;20025;-55
2022/01/01 10:43:05;;;;;;;6.47;4.13;;;;;;;9.19;84.26;100813.00;5084976;28;20217;-55
2022/01/01 10:45:32;;;;;;;5.45;3.22;;;;;;;9.21;83.71;100811.22;5095468;28;20032;-55
2022/01/01 10:48:21;;;;;;;4.28;2.88;;;;;;;9.24;83.01;100820.81;5095110;28;20024;-54
2022/01/01 10:50:48;;;;;;;5.53;3.15;;;;;;;9.28;83.76;100812.03;5094527;28;20077;-54
2022/01/01 10:53:23;;;;;;;4.35;2.78;;;;;;;9.18;83.03;100823.53;5088842;28;20056;-54
2022/01/01 10:55:55;;;;;;;8.32;4.45;;;;;;;9.25;83.75;100827.81;5074166;28;20391;-52
2022/01/01 10:58:26;;;;;;;5.87;3.33;;;;;;;9.25;83.44;100828.66;5074353;28;20044;-53
2022/01/01 11:00:58;;;;;;;4.20;2.85;;;;;;;9.32;83.61;100824.25;5074287;28;20468;-53
2022/01/01 11:03:24;;;;;;;5.20;3.20;;;;;;;9.33;83.18;100832.09;5075028;28;20032;-54
2022/01/01 11:06:06;;;;;;;8.23;4.65;;;;;;;9.29;82.68;100834.75;5078086;28;20046;-56
2022/01/01 11:08:36;;;;;;;6.03;3.65;;;;;;;9.33;83.12;100833.84;5081190;28;20460;-55
2022/01/01 11:11:03;;;;;;;7.30;3.80;;;;;;;9.33;82.92;100832.09;5094430;28;20070;-51
2022/01/01 11:13:31;;;;;;;6.55;4.10;;;;;;;9.25;82.77;100833.03;5094662;28;20052;-54
2022/01/01 11:15:56;;;;;;;8.40;4.75;;;;;;;9.24;82.77;100842.66;5093798;28;20028;-54
2022/01/01 11:18:24;;;;;;;8.27;4.50;;;;;;;9.29;82.39;100835.63;5094427;28;20448;-55
2022/01/01 11:20:50;;;;;;;5.97;4.35;;;;;;;9.29;82.14;100834.75;5094500;28;20103;-54
2022/01/01 11:23:16;;;;;;;8.77;5.03;;;;;;;9.33;82.20;100831.22;5094686;28;20039;-54
2022/01/01 11:25:42;;;;;;;5.85;3.45;;;;;;;9.30;81.61;100828.66;5094614;28;20072;-53
2022/01/01 11:28:13;;;;;;;6.43;3.50;;;;;;;9.32;81.71;100834.75;5094114;28;20085;-51
2022/01/01 11:31:07;;;;;;;11.30;6.07;;;;;;;9.19;81.87;100847.09;5094316;28;20042;-53
2022/01/01 11:33:41;;;;;;;8.88;4.93;;;;;;;9.18;81.89;100845.38;5088311;28;20430;-53
2022/01/01 11:36:07;;;;;;;6.05;4.05;;;;;;;9.20;82.42;100855.81;5094834;28;20028;-50